sensor_id;sensor_type;location;lat;lon;timestamp;pressure;altitude;pressure_sealevel;temperature;humidity
6532;BME280;3299;42.004;24.868;2023-04-15T00:01:27;97385.13;;;12.54;100.00
6532;BME280;3299;42.004;24.868;2023-04-15T00:03:53;97378.84;;;12.47;100.00
6532;BME280;3299;42.004;24.868;2023-04-15T00:06:22;97416.63;;;12.59;100.00
6532;BME280;3299;42.004;24.868;2023-04-15T00:08:48;97466.13;;;12.84;100.00
6532;BME280;3299;42.004;24.868;2023-04-15T00:11:15;97461.19;;;12.91;100.00
6532;BME280;3299;42.004;24.868;2023-04-15T00:13:41;97435.84;;;12.75;100.00
6532;BME280;3299;42.004;24.868;2023-04-15T00:16:07;97464.50;;;12.83;100.00
6532;BME280;3299;42.004;24.868;2023-04-15T00:18:33;97439.44;;;12.65;100.00
6532;BME280;3299;42.004;24.868;2023-04-15T00:20:59;97468.31;;;12.89;100.00
6532;BME280;3299;42.004;24.868;2023-04-15T00:23:26;97420.53;;;12.72;100.00
6532;BME280;3299;42.004;24.868;2023-04-15T00:25:52;97382.66;;;12.52;100.00
6532;BME280;3299;42.004;24.868;2023-04-15T00:28:17;97390.81;;;12.67;100.00
6532;BME280;3299;42.004;24.868;2023-04-15T00:30:43;97409.56;;;12.97;100.00
6532;BME280;3299;42.004;24.868;2023-04-15T00:33:09;97453.38;;;13.37;100.00
6532;BME280;3299;42.004;24.868;2023-04-15T00:35:35;97372.31;;;12.79;100.00
6532;BME280;3299;42.004;24.868;2023-04-15T00:38:03;97444.41;;;13.22;100.00
6532;BME280;3299;42.004;24.868;2023-04-15T00:40:29;97379.50;;;12.58;100.00
6532;BME280;3299;42.004;24.868;2023-04-15T00:42:55;97396.88;;;12.48;100.00
6532;BME280;3299;42.004;24.868;2023-04-15T00:45:20;97404.38;;;12.51;100.00
6532;BME280;3299;42.004;24.868;2023-04-15T00:47:46;97442.56;;;12.68;100.00
6532;BME280;3299;42.004;24.868;2023-04-15T00:50:11;97421.94;;;12.67;100.00
6532;BME280;3299;42.004;24.868;2023-04-15T00:52:37;97455.72;;;13.03;100.00
6532;BME280;3299;42.004;24.868;2023-04-15T00:55:04;97438.22;;;13.05;100.00
6532;BME280;3299;42.004;24.868;2023-04-15T00:57:30;97452.91;;;13.24;100.00
6532;BME280;3299;42.004;24.868;2023-04-15T00:59:56;97384.38;;;12.71;100.00
6532;BME280;3299;42.004;24.868;2023-04-15T01:02:22;97391.34;;;12.70;100.00
6532;BME280;3299;42.004;24.868;2023-04-15T01:04:48;97394.53;;;12.82;100.00
6532;BME280;3299;42.004;24.868;2023-04-15T01:07:14;97390.22;;;12.73;100.00
6532;BME280;3299;42.004;24.868;2023-04-15T01:09:40;97436.88;;;12.92;100.00
6532;BME280;3299;42.004;24.868;2023-04-15T01:12:05;97393.34;;;12.40;100.00
6532;BME280;3299;42.004;24.868;2023-04-15T01:14:32;97456.84;;;12.45;100.00
6532;BME280;3299;42.004;24.868;2023-04-15T01:16:58;97402.84;;;12.03;100.00
6532;BME280;3299;42.004;24.868;2023-04-15T01:19:23;97435.66;;;12.40;100.00
6532;BME280;3299;42.004;24.868;2023-04-15T01:21:49;97401.84;;;12.13;100.00
6532;BME280;3299;42.004;24.868;2023-04-15T01:24:17;97402.16;;;12.10;100.00
6532;BME280;3299;42.004;24.868;2023-04-15T01:26:42;97416.72;;;12.30;100.00
6532;BME280;3299;42.004;24.868;2023-04-15T01:29:09;97444.63;;;12.55;100.00
6532;BME280;3299;42.004;24.868;2023-04-15T01:31:34;97449.25;;;12.61;100.00
6532;BME280;3299;42.004;24.868;2023-04-15T01:34:00;97448.22;;;12.45;100.00
6532;BME280;3299;42.004;24.868;2023-04-15T01:36:26;97393.94;;;12.15;100.00
6532;BME280;3299;42.004;24.868;2023-04-15T01:38:55;97433.31;;;12.56;100.00
6532;BME280;3299;42.004;24.868;2023-04-15T01:41:25;97380.72;;;12.08;100.00
6532;BME280;3299;42.004;24.868;2023-04-15T01:43:50;97438.81;;;12.34;100.00
6532;BME280;3299;42.004;24.868;2023-04-15T01:46:16;97387.53;;;12.09;100.00
6532;BME280;3299;42.004;24.868;2023-04-15T01:48:42;97447.94;;;12.57;100.00
6532;BME280;3299;42.004;24.868;2023-04-15T01:51:07;97378.34;;;12.34;100.00
6532;BME280;3299;42.004;24.868;2023-04-15T01:53:32;97446.47;;;12.82;100.00
6532;BME280;3299;42.004;24.868;2023-04-15T01:55:58;97399.13;;;12.15;100.00
6532;BME280;3299;42.004;24.868;2023-04-15T01:58:23;97403.59;;;12.32;100.00
6532;BME280;3299;42.004;24.868;2023-04-15T02:00:49;97467.00;;;12.75;100.00
6532;BME280;3299;42.004;24.868;2023-04-15T02:03:15;97404.38;;;12.51;100.00
6532;BME280;3299;42.004;24.868;2023-04-15T02:05:41;97446.59;;;12.44;100.00
6532;BME280;3299;42.004;24.868;2023-04-15T02:08:06;97412.22;;;12.23;100.00
6532;BME280;3299;42.004;24.868;2023-04-15T02:10:32;97463.63;;;12.56;100.00
6532;BME280;3299;42.004;24.868;2023-04-15T02:12:57;97436.78;;;12.38;100.00
6532;BME280;3299;42.004;24.868;2023-04-15T02:15:23;97466.47;;;12.72;100.00
6532;BME280;3299;42.004;24.868;2023-04-15T02:17:49;97486.63;;;12.97;100.00
6532;BME280;3299;42.004;24.868;2023-04-15T02:20:17;97486.06;;;12.93;100.00
6532;BME280;3299;42.004;24.868;2023-04-15T02:22:43;97429.72;;;12.67;100.00
6532;BME280;3299;42.004;24.868;2023-04-15T02:25:08;97423.56;;;12.68;100.00
6532;BME280;3299;42.004;24.868;2023-04-15T02:27:35;97450.84;;;12.81;100.00
6532;BME280;3299;42.004;24.868;2023-04-15T02:30:00;97459.03;;;12.86;100.00
6532;BME280;3299;42.004;24.868;2023-04-15T02:32:26;97499.34;;;13.00;100.00
6532;BME280;3299;42.004;24.868;2023-04-15T02:34:51;97446.25;;;12.66;100.00
6532;BME280;3299;42.004;24.868;2023-04-15T02:37:17;97507.66;;;13.03;100.00
6532;BME280;3299;42.004;24.868;2023-04-15T02:39:44;97453.06;;;12.76;100.00
6532;BME280;3299;42.004;24.868;2023-04-15T02:42:10;97469.47;;;12.77;100.00
6532;BME280;3299;42.004;24.868;2023-04-15T02:44:35;97424.22;;;12.24;100.00
6532;BME280;3299;42.004;24.868;2023-04-15T02:47:01;97506.97;;;12.92;100.00
6532;BME280;3299;42.004;24.868;2023-04-15T02:49:27;97504.91;;;13.05;100.00
6532;BME280;3299;42.004;24.868;2023-04-15T02:51:55;97481.66;;;12.94;100.00
6532;BME280;3299;42.004;24.868;2023-04-15T02:54:22;97429.06;;;12.55;100.00
6532;BME280;3299;42.004;24.868;2023-04-15T02:56:48;97460.09;;;12.47;100.00
6532;BME280;3299;42.004;24.868;2023-04-15T02:59:14;97429.53;;;12.32;100.00
6532;BME280;3299;42.004;24.868;2023-04-15T03:01:40;97427.75;;;12.32;100.00
6532;BME280;3299;42.004;24.868;2023-04-15T03:04:05;97432.81;;;12.24;100.00
6532;BME280;3299;42.004;24.868;2023-04-15T03:06:33;97483.31;;;12.49;100.00
6532;BME280;3299;42.004;24.868;2023-04-15T03:08:58;97436.78;;;12.09;100.00
6532;BME280;3299;42.004;24.868;2023-04-15T03:11:25;97496.84;;;12.24;100.00
6532;BME280;3299;42.004;24.868;2023-04-15T03:13:51;97441.44;;;11.87;100.00
6532;BME280;3299;42.004;24.868;2023-04-15T03:16:16;97503.13;;;12.21;100.00
6532;BME280;3299;42.004;24.868;2023-04-15T03:18:42;97482.25;;;12.04;100.00
6532;BME280;3299;42.004;24.868;2023-04-15T03:21:07;97525.75;;;12.38;100.00
6532;BME280;3299;42.004;24.868;2023-04-15T03:23:33;97496.53;;;12.46;100.00
6532;BME280;3299;42.004;24.868;2023-04-15T03:26:01;97459.56;;;12.34;100.00
6532;BME280;3299;42.004;24.868;2023-04-15T03:28:26;97523.81;;;12.78;100.00
6532;BME280;3299;42.004;24.868;2023-04-15T03:30:53;97454.53;;;12.33;100.00
6532;BME280;3299;42.004;24.868;2023-04-15T03:33:19;97530.38;;;12.73;100.00
6532;BME280;3299;42.004;24.868;2023-04-15T03:35:44;97536.84;;;12.50;100.00
6532;BME280;3299;42.004;24.868;2023-04-15T03:38:10;97458.09;;;11.84;100.00
6532;BME280;3299;42.004;24.868;2023-04-15T03:40:35;97460.94;;;11.62;100.00
6532;BME280;3299;42.004;24.868;2023-04-15T03:43:01;97472.97;;;11.82;100.00
6532;BME280;3299;42.004;24.868;2023-04-15T03:45:26;97511.31;;;12.07;100.00
6532;BME280;3299;42.004;24.868;2023-04-15T03:47:51;97516.19;;;11.82;100.00
6532;BME280;3299;42.004;24.868;2023-04-15T03:50:17;97554.75;;;11.66;100.00
6532;BME280;3299;42.004;24.868;2023-04-15T03:52:43;97572.66;;;11.78;100.00
6532;BME280;3299;42.004;24.868;2023-04-15T03:55:09;97549.72;;;11.64;100.00
6532;BME280;3299;42.004;24.868;2023-04-15T03:57:34;97568.34;;;12.07;100.00
6532;BME280;3299;42.004;24.868;2023-04-15T04:00:04;97497.09;;;11.73;100.00
6532;BME280;3299;42.004;24.868;2023-04-15T04:02:30;97491.00;;;11.54;100.00
6532;BME280;3299;42.004;24.868;2023-04-15T04:04:55;97538.63;;;12.02;100.00
6532;BME280;3299;42.004;24.868;2023-04-15T04:07:22;97541.22;;;12.02;100.00
6532;BME280;3299;42.004;24.868;2023-04-15T04:09:48;97500.41;;;11.94;100.00
6532;BME280;3299;42.004;24.868;2023-04-15T04:12:13;97561.00;;;12.22;100.00
6532;BME280;3299;42.004;24.868;2023-04-15T04:14:39;97520.84;;;11.78;100.00
6532;BME280;3299;42.004;24.868;2023-04-15T04:17:04;97534.53;;;12.09;100.00
6532;BME280;3299;42.004;24.868;2023-04-15T04:19:30;97577.09;;;12.35;100.00
6532;BME280;3299;42.004;24.868;2023-04-15T04:21:56;97550.19;;;12.07;100.00
6532;BME280;3299;42.004;24.868;2023-04-15T04:24:21;97569.19;;;12.17;100.00
6532;BME280;3299;42.004;24.868;2023-04-15T04:26:47;97575.47;;;12.05;100.00
6532;BME280;3299;42.004;24.868;2023-04-15T04:29:12;97535.28;;;11.81;100.00
6532;BME280;3299;42.004;24.868;2023-04-15T04:31:38;97541.53;;;11.69;100.00
6532;BME280;3299;42.004;24.868;2023-04-15T04:34:03;97579.19;;;11.63;100.00
6532;BME280;3299;42.004;24.868;2023-04-15T04:36:28;97596.63;;;11.71;100.00
6532;BME280;3299;42.004;24.868;2023-04-15T04:38:54;97595.34;;;11.86;100.00
6532;BME280;3299;42.004;24.868;2023-04-15T04:41:20;97575.88;;;12.01;100.00
6532;BME280;3299;42.004;24.868;2023-04-15T04:43:45;97591.03;;;12.15;100.00
6532;BME280;3299;42.004;24.868;2023-04-15T04:46:10;97556.88;;;11.91;100.00
6532;BME280;3299;42.004;24.868;2023-04-15T04:48:36;97563.34;;;11.66;100.00
6532;BME280;3299;42.004;24.868;2023-04-15T04:51:02;97622.81;;;12.17;100.00
6532;BME280;3299;42.004;24.868;2023-04-15T04:53:27;97530.41;;;11.78;100.00
6532;BME280;3299;42.004;24.868;2023-04-15T04:55:53;97548.97;;;12.02;100.00
6532;BME280;3299;42.004;24.868;2023-04-15T04:58:18;97598.69;;;12.45;100.00
6532;BME280;3299;42.004;24.868;2023-04-15T05:00:44;97517.59;;;11.95;100.00
6532;BME280;3299;42.004;24.868;2023-04-15T05:03:10;97513.91;;;11.98;100.00
6532;BME280;3299;42.004;24.868;2023-04-15T05:05:35;97549.94;;;12.29;100.00
6532;BME280;3299;42.004;24.868;2023-04-15T05:08:04;97602.94;;;12.65;100.00
6532;BME280;3299;42.004;24.868;2023-04-15T05:10:29;97600.47;;;12.73;100.00
6532;BME280;3299;42.004;24.868;2023-04-15T05:12:55;97572.47;;;12.67;100.00
6532;BME280;3299;42.004;24.868;2023-04-15T05:15:21;97565.34;;;12.69;100.00
6532;BME280;3299;42.004;24.868;2023-04-15T05:17:46;97543.78;;;12.68;100.00
6532;BME280;3299;42.004;24.868;2023-04-15T05:20:12;97533.91;;;12.81;100.00
6532;BME280;3299;42.004;24.868;2023-04-15T05:22:37;97543.06;;;12.95;100.00
6532;BME280;3299;42.004;24.868;2023-04-15T05:25:03;97584.66;;;13.31;100.00
6532;BME280;3299;42.004;24.868;2023-04-15T05:27:29;97595.59;;;13.35;100.00
6532;BME280;3299;42.004;24.868;2023-04-15T05:29:54;97615.75;;;13.60;100.00
6532;BME280;3299;42.004;24.868;2023-04-15T05:32:21;97618.50;;;13.49;100.00
6532;BME280;3299;42.004;24.868;2023-04-15T05:34:46;97567.22;;;13.14;100.00
6532;BME280;3299;42.004;24.868;2023-04-15T05:37:11;97593.72;;;13.08;100.00
6532;BME280;3299;42.004;24.868;2023-04-15T05:39:37;97605.78;;;13.09;100.00
6532;BME280;3299;42.004;24.868;2023-04-15T05:42:02;97639.91;;;13.33;100.00
6532;BME280;3299;42.004;24.868;2023-04-15T05:44:30;97636.38;;;13.25;100.00
6532;BME280;3299;42.004;24.868;2023-04-15T05:46:55;97640.72;;;13.43;100.00
6532;BME280;3299;42.004;24.868;2023-04-15T05:49:21;97657.09;;;13.44;100.00
6532;BME280;3299;42.004;24.868;2023-04-15T05:51:47;97654.97;;;13.11;100.00
6532;BME280;3299;42.004;24.868;2023-04-15T05:54:12;97665.59;;;13.27;100.00
6532;BME280;3299;42.004;24.868;2023-04-15T05:56:37;97631.44;;;13.22;100.00
6532;BME280;3299;42.004;24.868;2023-04-15T05:59:03;97615.59;;;13.25;99.67
6532;BME280;3299;42.004;24.868;2023-04-15T06:01:28;97615.28;;;13.28;99.51
6532;BME280;3299;42.004;24.868;2023-04-15T06:03:54;97679.69;;;13.80;97.38
6532;BME280;3299;42.004;24.868;2023-04-15T06:06:20;97605.63;;;13.57;97.98
6532;BME280;3299;42.004;24.868;2023-04-15T06:08:45;97656.88;;;14.01;95.44
6532;BME280;3299;42.004;24.868;2023-04-15T06:11:11;97633.16;;;14.04;93.12
6532;BME280;3299;42.004;24.868;2023-04-15T06:13:36;97630.97;;;14.09;93.34
6532;BME280;3299;42.004;24.868;2023-04-15T06:16:02;97702.53;;;14.67;93.31
6532;BME280;3299;42.004;24.868;2023-04-15T06:18:28;97647.09;;;14.39;91.37
6532;BME280;3299;42.004;24.868;2023-04-15T06:20:53;97648.97;;;14.47;89.92
6532;BME280;3299;42.004;24.868;2023-04-15T06:23:19;97658.28;;;14.49;89.65
6532;BME280;3299;42.004;24.868;2023-04-15T06:25:45;97677.25;;;14.77;90.06
6532;BME280;3299;42.004;24.868;2023-04-15T06:28:10;97705.31;;;15.00;87.21
6532;BME280;3299;42.004;24.868;2023-04-15T06:30:36;97705.03;;;15.21;85.80
6532;BME280;3299;42.004;24.868;2023-04-15T06:33:02;97654.13;;;14.91;84.88
6532;BME280;3299;42.004;24.868;2023-04-15T06:35:29;97700.91;;;15.36;82.49
6532;BME280;3299;42.004;24.868;2023-04-15T06:37:55;97727.16;;;15.60;81.60
6532;BME280;3299;42.004;24.868;2023-04-15T06:40:20;97657.66;;;15.25;80.60
6532;BME280;3299;42.004;24.868;2023-04-15T06:42:46;97724.34;;;15.79;79.36
6532;BME280;3299;42.004;24.868;2023-04-15T06:45:11;97732.88;;;15.89;79.69
6532;BME280;3299;42.004;24.868;2023-04-15T06:47:37;97729.50;;;15.96;79.48
6532;BME280;3299;42.004;24.868;2023-04-15T06:50:03;97685.06;;;15.80;79.76
6532;BME280;3299;42.004;24.868;2023-04-15T06:52:28;97748.75;;;16.21;79.03
6532;BME280;3299;42.004;24.868;2023-04-15T06:54:54;97738.75;;;16.16;77.60
6532;BME280;3299;42.004;24.868;2023-04-15T06:57:19;97740.72;;;16.22;78.22
6532;BME280;3299;42.004;24.868;2023-04-15T06:59:44;97742.72;;;16.28;77.12
6532;BME280;3299;42.004;24.868;2023-04-15T07:02:12;97732.81;;;16.32;75.24
6532;BME280;3299;42.004;24.868;2023-04-15T07:04:38;97704.00;;;16.16;74.80
6532;BME280;3299;42.004;24.868;2023-04-15T07:07:04;97757.00;;;16.42;75.19
6532;BME280;3299;42.004;24.868;2023-04-15T07:09:30;97726.91;;;16.30;76.69
6532;BME280;3299;42.004;24.868;2023-04-15T07:11:56;97755.09;;;16.52;76.51
6532;BME280;3299;42.004;24.868;2023-04-15T07:14:22;97701.13;;;16.35;74.65
6532;BME280;3299;42.004;24.868;2023-04-15T07:16:47;97748.47;;;16.73;74.99
6532;BME280;3299;42.004;24.868;2023-04-15T07:19:12;97719.16;;;16.46;74.51
6532;BME280;3299;42.004;24.868;2023-04-15T07:21:38;97670.00;;;16.00;75.90
6532;BME280;3299;42.004;24.868;2023-04-15T07:24:04;97669.91;;;15.84;76.24
6532;BME280;3299;42.004;24.868;2023-04-15T07:26:29;97682.19;;;15.91;77.25
6532;BME280;3299;42.004;24.868;2023-04-15T07:28:55;97708.00;;;15.94;77.39
6532;BME280;3299;42.004;24.868;2023-04-15T07:31:21;97674.78;;;15.79;77.92
6532;BME280;3299;42.004;24.868;2023-04-15T07:33:46;97719.59;;;15.74;76.46
6532;BME280;3299;42.004;24.868;2023-04-15T07:36:11;97755.03;;;16.10;76.37
6532;BME280;3299;42.004;24.868;2023-04-15T07:38:37;97735.22;;;15.92;77.09
6532;BME280;3299;42.004;24.868;2023-04-15T07:41:03;97679.34;;;15.77;77.29
6532;BME280;3299;42.004;24.868;2023-04-15T07:43:29;97683.88;;;16.00;76.53
6532;BME280;3299;42.004;24.868;2023-04-15T07:45:54;97724.19;;;16.39;74.72
6532;BME280;3299;42.004;24.868;2023-04-15T07:48:20;97737.66;;;16.52;73.75
6532;BME280;3299;42.004;24.868;2023-04-15T07:50:45;97687.09;;;16.36;73.32
6532;BME280;3299;42.004;24.868;2023-04-15T07:53:10;97676.84;;;16.34;73.19
6532;BME280;3299;42.004;24.868;2023-04-15T07:55:36;97686.06;;;16.46;74.42
6532;BME280;3299;42.004;24.868;2023-04-15T07:58:01;97678.06;;;16.56;73.05
6532;BME280;3299;42.004;24.868;2023-04-15T08:00:27;97725.16;;;16.88;72.44
6532;BME280;3299;42.004;24.868;2023-04-15T08:02:52;97676.00;;;16.75;70.30
6532;BME280;3299;42.004;24.868;2023-04-15T08:05:18;97750.72;;;17.26;70.75
6532;BME280;3299;42.004;24.868;2023-04-15T08:07:44;97691.50;;;17.01;71.23
6532;BME280;3299;42.004;24.868;2023-04-15T08:10:10;97716.06;;;17.08;69.57
6532;BME280;3299;42.004;24.868;2023-04-15T08:12:36;97718.66;;;17.16;68.82
6532;BME280;3299;42.004;24.868;2023-04-15T08:15:02;97694.31;;;17.07;69.42
6532;BME280;3299;42.004;24.868;2023-04-15T08:17:28;97752.22;;;17.52;70.06
6532;BME280;3299;42.004;24.868;2023-04-15T08:19:53;97652.81;;;17.12;69.56
6532;BME280;3299;42.004;24.868;2023-04-15T08:22:19;97703.66;;;17.50;67.33
6532;BME280;3299;42.004;24.868;2023-04-15T08:24:44;97681.09;;;17.25;65.39
6532;BME280;3299;42.004;24.868;2023-04-15T08:27:10;97688.13;;;17.16;64.60
6532;BME280;3299;42.004;24.868;2023-04-15T08:29:35;97746.81;;;17.54;66.19
6532;BME280;3299;42.004;24.868;2023-04-15T08:32:01;97702.66;;;17.51;64.84
6532;BME280;3299;42.004;24.868;2023-04-15T08:34:26;97741.53;;;17.86;65.55
6532;BME280;3299;42.004;24.868;2023-04-15T08:36:52;97752.50;;;17.97;66.10
6532;BME280;3299;42.004;24.868;2023-04-15T08:39:18;97701.31;;;17.79;65.44
6532;BME280;3299;42.004;24.868;2023-04-15T08:41:51;97747.34;;;18.20;65.05
6532;BME280;3299;42.004;24.868;2023-04-15T08:44:17;97758.47;;;18.38;65.08
6532;BME280;3299;42.004;24.868;2023-04-15T08:46:43;97722.81;;;18.21;65.54
6532;BME280;3299;42.004;24.868;2023-04-15T08:49:12;97752.84;;;18.49;64.67
6532;BME280;3299;42.004;24.868;2023-04-15T08:51:38;97692.88;;;18.15;65.46
6532;BME280;3299;42.004;24.868;2023-04-15T08:54:04;97744.84;;;18.50;64.19
6532;BME280;3299;42.004;24.868;2023-04-15T08:56:31;97724.09;;;18.41;65.21
6532;BME280;3299;42.004;24.868;2023-04-15T08:58:58;97773.06;;;18.71;65.54
6532;BME280;3299;42.004;24.868;2023-04-15T09:01:23;97746.94;;;18.55;64.28
6532;BME280;3299;42.004;24.868;2023-04-15T09:03:49;97758.53;;;18.60;63.98
6532;BME280;3299;42.004;24.868;2023-04-15T09:06:16;97738.66;;;18.27;61.57
6532;BME280;3299;42.004;24.868;2023-04-15T09:08:42;97771.81;;;18.51;62.68
6532;BME280;3299;42.004;24.868;2023-04-15T09:11:07;97705.41;;;17.81;62.95
6532;BME280;3299;42.004;24.868;2023-04-15T09:13:33;97685.13;;;17.67;64.58
6532;BME280;3299;42.004;24.868;2023-04-15T09:16:01;97749.69;;;17.99;66.78
6532;BME280;3299;42.004;24.868;2023-04-15T09:18:32;97768.63;;;18.33;68.19
6532;BME280;3299;42.004;24.868;2023-04-15T09:21:14;97770.19;;;18.50;67.76
6532;BME280;3299;42.004;24.868;2023-04-15T09:23:53;97754.41;;;18.66;66.93
6532;BME280;3299;42.004;24.868;2023-04-15T09:26:32;97757.75;;;18.82;63.12
6532;BME280;3299;42.004;24.868;2023-04-15T09:29:09;97676.44;;;18.37;61.21
6532;BME280;3299;42.004;24.868;2023-04-15T09:31:35;97697.88;;;18.41;59.83
6532;BME280;3299;42.004;24.868;2023-04-15T09:34:01;97731.47;;;18.68;60.67
6532;BME280;3299;42.004;24.868;2023-04-15T09:36:27;97711.66;;;18.65;61.89
6532;BME280;3299;42.004;24.868;2023-04-15T09:38:57;97722.19;;;18.88;62.92
6532;BME280;3299;42.004;24.868;2023-04-15T09:41:24;97670.66;;;18.72;63.36
6532;BME280;3299;42.004;24.868;2023-04-15T09:43:49;97748.13;;;19.36;61.31
6532;BME280;3299;42.004;24.868;2023-04-15T09:46:15;97726.28;;;19.13;58.49
6532;BME280;3299;42.004;24.868;2023-04-15T09:48:41;97700.72;;;18.84;58.86
6532;BME280;3299;42.004;24.868;2023-04-15T09:51:06;97669.47;;;18.83;57.43
6532;BME280;3299;42.004;24.868;2023-04-15T09:53:34;97667.94;;;18.66;53.37
6532;BME280;3299;42.004;24.868;2023-04-15T09:56:00;97743.31;;;19.17;57.05
6532;BME280;3299;42.004;24.868;2023-04-15T09:58:31;97704.25;;;19.22;54.89
6532;BME280;3299;42.004;24.868;2023-04-15T10:00:58;97729.88;;;19.57;53.77
6532;BME280;3299;42.004;24.868;2023-04-15T10:03:29;97683.72;;;19.48;54.69
6532;BME280;3299;42.004;24.868;2023-04-15T10:05:57;97664.06;;;19.44;55.63
6532;BME280;3299;42.004;24.868;2023-04-15T10:08:29;97698.78;;;19.68;56.57
6532;BME280;3299;42.004;24.868;2023-04-15T10:10:55;97716.91;;;19.92;55.14
6532;BME280;3299;42.004;24.868;2023-04-15T10:13:22;97718.97;;;19.82;50.33
6532;BME280;3299;42.004;24.868;2023-04-15T10:16:10;97724.25;;;19.97;52.48
6532;BME280;3299;42.004;24.868;2023-04-15T10:18:46;97713.34;;;20.08;53.78
6532;BME280;3299;42.004;24.868;2023-04-15T10:21:13;97696.41;;;20.10;54.71
6532;BME280;3299;42.004;24.868;2023-04-15T10:23:44;97720.66;;;20.27;56.12
6532;BME280;3299;42.004;24.868;2023-04-15T10:26:11;97692.13;;;19.95;54.15
6532;BME280;3299;42.004;24.868;2023-04-15T10:28:37;97663.78;;;19.76;56.64
6532;BME280;3299;42.004;24.868;2023-04-15T10:31:03;97698.47;;;20.29;56.35
6532;BME280;3299;42.004;24.868;2023-04-15T10:33:30;97690.47;;;20.52;55.03
6532;BME280;3299;42.004;24.868;2023-04-15T10:35:56;97641.75;;;20.35;54.97
6532;BME280;3299;42.004;24.868;2023-04-15T10:41:25;97648.91;;;20.62;53.61
6532;BME280;3299;42.004;24.868;2023-04-15T10:43:59;97653.84;;;20.86;52.99
6532;BME280;3299;42.004;24.868;2023-04-15T10:51:37;97668.25;;;20.90;54.94
6532;BME280;3299;42.004;24.868;2023-04-15T10:59:28;97666.00;;;21.08;55.88
6532;BME280;3299;42.004;24.868;2023-04-15T11:02:00;97680.91;;;21.01;56.66
6532;BME280;3299;42.004;24.868;2023-04-15T11:04:58;97682.94;;;20.99;58.00
6532;BME280;3299;42.004;24.868;2023-04-15T11:07:40;97681.44;;;21.11;57.30
6532;BME280;3299;42.004;24.868;2023-04-15T11:12:51;97657.75;;;21.32;56.97
6532;BME280;3299;42.004;24.868;2023-04-15T11:15:34;97608.63;;;21.45;56.51
6532;BME280;3299;42.004;24.868;2023-04-15T11:18:20;97611.41;;;21.37;54.82
6532;BME280;3299;42.004;24.868;2023-04-15T11:20:50;97641.66;;;21.48;56.06
6532;BME280;3299;42.004;24.868;2023-04-15T11:26:00;97602.06;;;21.07;55.80
6532;BME280;3299;42.004;24.868;2023-04-15T11:28:29;97632.88;;;21.13;55.48
6532;BME280;3299;42.004;24.868;2023-04-15T11:30:55;97640.97;;;20.76;57.58
6532;BME280;3299;42.004;24.868;2023-04-15T11:33:22;97619.38;;;20.60;58.21
6532;BME280;3299;42.004;24.868;2023-04-15T11:35:48;97578.19;;;20.67;59.51
6532;BME280;3299;42.004;24.868;2023-04-15T11:38:15;97568.31;;;20.69;58.93
6532;BME280;3299;42.004;24.868;2023-04-15T11:40:41;97600.88;;;21.10;58.64
6532;BME280;3299;42.004;24.868;2023-04-15T11:43:16;97594.47;;;21.19;58.02
6532;BME280;3299;42.004;24.868;2023-04-15T11:48:16;97577.94;;;20.83;59.03
6532;BME280;3299;42.004;24.868;2023-04-15T11:50:42;97604.66;;;21.28;59.84
6532;BME280;3299;42.004;24.868;2023-04-15T11:53:10;97595.00;;;21.35;58.37
6532;BME280;3299;42.004;24.868;2023-04-15T11:55:45;97648.91;;;21.67;57.43
6532;BME280;3299;42.004;24.868;2023-04-15T11:58:19;97638.31;;;21.60;56.40
6532;BME280;3299;42.004;24.868;2023-04-15T12:00:56;97631.22;;;21.33;57.95
6532;BME280;3299;42.004;24.868;2023-04-15T12:03:23;97622.72;;;21.10;59.59
6532;BME280;3299;42.004;24.868;2023-04-15T12:06:13;97611.66;;;21.15;59.69
6532;BME280;3299;42.004;24.868;2023-04-15T12:08:55;97623.56;;;21.11;60.30
6532;BME280;3299;42.004;24.868;2023-04-15T12:11:28;97605.75;;;21.13;61.34
6532;BME280;3299;42.004;24.868;2023-04-15T12:13:56;97543.84;;;20.68;61.58
6532;BME280;3299;42.004;24.868;2023-04-15T12:16:23;97540.91;;;20.57;62.11
6532;BME280;3299;42.004;24.868;2023-04-15T12:18:52;97605.31;;;21.09;62.05
6532;BME280;3299;42.004;24.868;2023-04-15T12:21:21;97571.44;;;20.79;62.60
6532;BME280;3299;42.004;24.868;2023-04-15T12:23:57;97565.69;;;20.90;62.97
6532;BME280;3299;42.004;24.868;2023-04-15T12:26:27;97580.69;;;20.89;61.30
6532;BME280;3299;42.004;24.868;2023-04-15T12:28:54;97542.66;;;20.71;62.45
6532;BME280;3299;42.004;24.868;2023-04-15T12:31:21;97586.94;;;20.88;63.44
6532;BME280;3299;42.004;24.868;2023-04-15T12:33:47;97610.16;;;21.06;63.57
6532;BME280;3299;42.004;24.868;2023-04-15T12:36:14;97611.94;;;20.84;64.10
6532;BME280;3299;42.004;24.868;2023-04-15T12:38:39;97540.31;;;20.40;65.25
6532;BME280;3299;42.004;24.868;2023-04-15T12:41:05;97547.28;;;20.48;64.95
6532;BME280;3299;42.004;24.868;2023-04-15T12:43:30;97603.53;;;20.89;64.92
6532;BME280;3299;42.004;24.868;2023-04-15T12:45:56;97576.38;;;20.46;65.81
6532;BME280;3299;42.004;24.868;2023-04-15T12:48:21;97614.94;;;20.60;65.50
6532;BME280;3299;42.004;24.868;2023-04-15T12:50:47;97614.81;;;20.47;66.04
6532;BME280;3299;42.004;24.868;2023-04-15T12:53:12;97614.59;;;20.28;66.93
6532;BME280;3299;42.004;24.868;2023-04-15T12:55:37;97569.53;;;20.10;67.41
6532;BME280;3299;42.004;24.868;2023-04-15T12:58:03;97538.34;;;19.92;67.04
6532;BME280;3299;42.004;24.868;2023-04-15T13:00:28;97604.09;;;20.49;67.31
6532;BME280;3299;42.004;24.868;2023-04-15T13:02:54;97600.47;;;20.50;67.09
6532;BME280;3299;42.004;24.868;2023-04-15T13:05:19;97571.72;;;20.63;66.68
6532;BME280;3299;42.004;24.868;2023-04-15T13:07:45;97576.78;;;21.06;64.08
6532;BME280;3299;42.004;24.868;2023-04-15T13:10:10;97557.94;;;21.03;63.65
6532;BME280;3299;42.004;24.868;2023-04-15T13:12:36;97581.41;;;21.04;63.69
6532;BME280;3299;42.004;24.868;2023-04-15T13:15:02;97538.59;;;21.17;61.78
6532;BME280;3299;42.004;24.868;2023-04-15T13:17:28;97604.66;;;21.90;61.14
6532;BME280;3299;42.004;24.868;2023-04-15T13:19:54;97608.97;;;21.91;60.70
6532;BME280;3299;42.004;24.868;2023-04-15T13:22:19;97532.50;;;21.44;60.91
6532;BME280;3299;42.004;24.868;2023-04-15T13:24:45;97529.41;;;21.40;61.45